createdAt,value
2019-05-07T00:02:52.477Z,8.80
2019-05-07T00:06:56.170Z,13.93
2019-05-07T00:11:02.267Z,14.03
2019-05-07T00:15:07.730Z,13.50
2019-05-07T00:19:12.897Z,8.68
2019-05-07T00:23:16.563Z,13.32
2019-05-07T00:27:19.997Z,11.25
2019-05-07T00:31:25.426Z,13.15
2019-05-07T00:35:32.420Z,11.70
2019-05-07T00:39:43.815Z,18.23
2019-05-07T00:43:49.509Z,11.08
2019-05-07T00:47:53.127Z,13.35
2019-05-07T00:51:56.710Z,13.88
2019-05-07T00:56:01.904Z,13.28
2019-05-07T01:00:06.887Z,14.63
2019-05-07T01:04:12.101Z,11.83
2019-05-07T01:08:15.579Z,11.77
2019-05-07T01:12:19.026Z,17.37
2019-05-07T01:16:22.478Z,16.00
2019-05-07T01:20:26.010Z,13.23
2019-05-07T01:24:29.466Z,11.12
2019-05-07T01:28:34.542Z,17.55
2019-05-07T01:32:45.421Z,10.00
2019-05-07T01:36:48.870Z,9.83
2019-05-07T01:40:52.323Z,10.75
2019-05-07T01:44:55.770Z,12.23
2019-05-07T01:48:59.530Z,14.68
2019-05-07T01:53:03.864Z,16.57
2019-05-07T01:57:07.775Z,14.70
2019-05-07T02:01:13.083Z,15.10
2019-05-07T02:09:31.400Z,17.12
2019-05-07T02:13:36.657Z,13.95
2019-05-07T02:17:40.098Z,24.80
2019-05-07T02:21:43.882Z,24.30
2019-05-07T02:25:47.333Z,24.45
2019-05-07T02:29:52.846Z,30.85
2019-05-07T02:33:55.948Z,29.30
2019-05-07T02:38:13.441Z,33.23
2019-05-07T02:46:31.253Z,33.08
2019-05-07T02:50:32.887Z,26.57
2019-05-07T02:54:54.742Z,21.62
2019-05-07T02:58:58.423Z,31.25
2019-05-07T03:03:04.090Z,27.42
2019-05-07T03:07:07.449Z,25.95
2019-05-07T03:11:14.209Z,23.18
2019-05-07T03:15:16.641Z,29.20
2019-05-07T03:19:20.103Z,23.40
2019-05-07T03:23:25.190Z,23.62
2019-05-07T03:27:28.652Z,23.73
2019-05-07T03:31:36.980Z,26.70
2019-05-07T03:35:46.337Z,22.32
2019-05-07T03:39:47.734Z,25.97
2019-05-07T03:43:52.665Z,31.80
2019-05-07T03:47:58.043Z,23.57
2019-05-07T03:52:04.326Z,16.70
2019-05-07T03:56:26.005Z,23.77
2019-05-07T04:00:33.035Z,18.07
2019-05-07T04:04:35.451Z,23.12
2019-05-07T04:08:38.910Z,24.25
2019-05-07T04:12:44.253Z,26.00
2019-05-07T04:16:47.519Z,20.35
2019-05-07T04:20:53.735Z,20.40
2019-05-07T04:25:04.548Z,21.15
2019-05-07T04:29:13.082Z,18.30
2019-05-07T04:33:20.099Z,20.05
2019-05-07T04:37:24.071Z,16.77
2019-05-07T04:41:27.632Z,18.35
2019-05-07T04:45:33.893Z,21.05
2019-05-07T04:49:36.872Z,23.73
2019-05-07T04:53:42.984Z,26.65
2019-05-07T04:57:45.741Z,20.30
2019-05-07T05:01:53.062Z,25.15
2019-05-07T05:05:56.067Z,24.27
2019-05-07T05:09:59.546Z,28.25
2019-05-07T05:14:07.758Z,24.40
2019-05-07T05:18:09.867Z,17.77
2019-05-07T05:26:41.828Z,21.48
2019-05-07T05:34:51.934Z,17.87
2019-05-07T05:38:54.845Z,24.32
2019-05-07T05:43:05.851Z,18.10
2019-05-07T05:47:11.732Z,18.25
2019-05-07T05:55:42.865Z,26.50
2019-05-07T05:59:54.539Z,17.97
2019-05-07T06:04:02.845Z,11.00
2019-05-07T06:08:12.445Z,18.02
2019-05-07T06:12:17.401Z,9.08
2019-05-07T06:16:22.509Z,20.93
2019-05-07T06:20:33.477Z,13.13
2019-05-07T06:24:44.768Z,8.53
2019-05-07T06:28:48.198Z,17.75
2019-05-07T06:32:52.263Z,15.40
2019-05-07T06:36:55.969Z,19.37
2019-05-07T06:41:02.655Z,9.20
2019-05-07T06:49:33.178Z,11.65
2019-05-07T06:53:36.610Z,7.83
2019-05-07T06:57:42.380Z,6.75
2019-05-07T07:01:46.871Z,6.70
2019-05-07T07:05:52.296Z,2.83
2019-05-07T07:10:09.346Z,17.00
2019-05-07T07:14:13.065Z,7.75
2019-05-07T07:18:16.790Z,8.90
2019-05-07T07:22:22.271Z,8.25
2019-05-07T07:26:26.154Z,5.08
2019-05-07T07:30:34.207Z,10.98
2019-05-07T07:34:39.283Z,9.05
2019-05-07T07:38:43.042Z,5.03
2019-05-07T07:42:46.482Z,5.58
2019-05-07T07:46:52.981Z,6.85
2019-05-07T07:54:58.560Z,6.30
2019-05-07T07:59:18.851Z,6.87
2019-05-07T08:03:22.646Z,8.58
2019-05-07T08:07:26.565Z,3.65
2019-05-07T08:11:31.961Z,8.65
2019-05-07T08:15:35.830Z,4.08
2019-05-07T08:19:39.271Z,4.22
2019-05-07T08:23:42.715Z,6.20
2019-05-07T08:27:46.415Z,4.00
2019-05-07T08:31:51.821Z,5.87
2019-05-07T08:36:00.091Z,8.03
2019-05-07T08:40:04.595Z,9.95
2019-05-07T08:44:14.581Z,6.17
2019-05-07T08:48:16.809Z,7.00
2019-05-07T08:52:22.206Z,2.17
2019-05-07T08:56:25.419Z,5.33
2019-05-07T09:00:28.924Z,4.63
2019-05-07T09:04:32.952Z,3.10
2019-05-07T09:08:36.586Z,4.17
2019-05-07T09:12:42.705Z,3.10
2019-05-07T09:20:48.185Z,3.42
2019-05-07T09:24:52.600Z,4.58
2019-05-07T09:28:58.054Z,8.10
2019-05-07T09:33:03.148Z,1.67
2019-05-07T09:37:14.535Z,2.92
2019-05-07T09:41:27.350Z,2.42
2019-05-07T09:45:32.682Z,3.10
2019-05-07T09:49:35.973Z,2.23
2019-05-07T09:53:39.425Z,2.92
2019-05-07T09:57:42.877Z,5.75
2019-05-07T10:01:46.381Z,3.33
2019-05-07T10:05:51.867Z,1.20
2019-05-07T10:09:55.380Z,2.02
2019-05-07T10:14:01.966Z,1.87
2019-05-07T10:18:12.236Z,1.65
2019-05-07T10:22:15.750Z,2.15
2019-05-07T10:26:19.462Z,0.80
2019-05-07T10:30:23.386Z,3.58
2019-05-07T10:34:27.004Z,1.95
2019-05-07T10:38:30.458Z,2.17
2019-05-07T10:42:33.964Z,4.22
2019-05-07T10:46:39.053Z,1.95
2019-05-07T10:50:44.204Z,2.07
2019-05-07T10:54:59.484Z,4.17
2019-05-07T10:58:52.811Z,3.00
2019-05-07T11:02:56.259Z,3.52
2019-05-07T11:06:59.974Z,2.65
2019-05-07T11:11:03.425Z,6.62
2019-05-07T11:15:07.710Z,4.58
2019-05-07T11:19:12.692Z,2.08
2019-05-07T11:23:16.342Z,5.53
2019-05-07T11:27:22.418Z,3.10
2019-05-07T11:31:25.251Z,3.95
2019-05-07T11:35:28.798Z,3.50
2019-05-07T11:39:33.192Z,1.95
2019-05-07T11:43:38.429Z,0.85
2019-05-07T11:47:42.123Z,2.37
2019-05-07T11:51:51.662Z,2.75
2019-05-07T11:55:55.273Z,1.70
2019-05-07T11:59:59.105Z,2.02
2019-05-07T12:04:02.541Z,1.77
2019-05-07T12:08:07.464Z,3.42
2019-05-07T12:12:12.678Z,6.00
2019-05-07T12:16:16.085Z,1.90
2019-05-07T12:20:21.789Z,1.90
2019-05-07T12:24:25.129Z,0.68
2019-05-07T12:28:28.581Z,1.00
2019-05-07T12:32:45.833Z,3.30
2019-05-07T12:36:49.284Z,3.10
2019-05-07T12:40:53.030Z,0.82
2019-05-07T12:44:56.721Z,1.57
2019-05-07T12:49:00.167Z,2.98
2019-05-07T12:53:23.467Z,2.55
2019-05-07T12:57:26.927Z,2.83
2019-05-07T13:01:48.699Z,3.30
2019-05-07T13:05:52.200Z,6.33
2019-05-07T13:09:55.753Z,2.55
2019-05-07T13:13:59.192Z,1.60
2019-05-07T13:18:02.908Z,3.30
2019-05-07T13:22:06.475Z,3.72
2019-05-07T13:26:10.230Z,2.02
2019-05-07T13:30:14.345Z,2.47
2019-05-07T13:34:17.799Z,3.90
2019-05-07T13:38:28.378Z,3.15
2019-05-07T13:42:43.905Z,3.00
2019-05-07T13:46:48.559Z,2.87
2019-05-07T13:50:52.538Z,1.87
2019-05-07T13:54:56.485Z,3.52
2019-05-07T13:59:02.338Z,5.10
2019-05-07T14:03:05.549Z,2.13
2019-05-07T14:07:09.007Z,8.60
2019-05-07T14:11:12.624Z,2.92
2019-05-07T14:15:16.778Z,1.37
2019-05-07T14:19:22.472Z,5.20
2019-05-07T14:23:25.686Z,3.72
2019-05-07T14:27:29.171Z,2.40
2019-05-07T14:31:33.762Z,4.70
2019-05-07T14:35:38.923Z,0.82
2019-05-07T14:39:42.603Z,3.57
2019-05-07T14:43:53.824Z,4.85
2019-05-07T14:47:57.283Z,1.32
2019-05-07T14:52:02.656Z,1.22
2019-05-07T14:56:06.148Z,1.32
2019-05-07T15:00:12.249Z,4.10
2019-05-07T15:04:15.527Z,2.37
2019-05-07T15:08:19.279Z,1.77
2019-05-07T15:12:23.591Z,2.52
2019-05-07T15:16:28.434Z,1.22
2019-05-07T15:20:33.054Z,1.80
2019-05-07T15:24:36.765Z,1.03
2019-05-07T15:28:41.856Z,2.83
2019-05-07T15:32:45.289Z,3.17
2019-05-07T15:36:48.744Z,4.30
2019-05-07T15:40:52.513Z,1.12
2019-05-07T15:44:55.953Z,2.33
2019-05-07T15:49:01.392Z,1.87
2019-05-07T15:53:12.445Z,3.72
2019-05-07T15:57:23.522Z,0.57
2019-05-07T16:01:26.982Z,3.22
2019-05-07T16:05:31.909Z,1.67
2019-05-07T16:09:44.907Z,0.88
2019-05-07T16:13:50.007Z,3.02
2019-05-07T16:17:55.072Z,8.10
2019-05-07T16:22:03.597Z,3.03
2019-05-07T16:26:05.449Z,0.90
2019-05-07T16:30:09.029Z,2.05
2019-05-07T16:34:12.823Z,0.72
2019-05-07T16:38:18.079Z,2.50
2019-05-07T16:42:21.878Z,1.60
2019-05-07T16:46:25.359Z,3.12
2019-05-07T16:50:29.094Z,1.60
2019-05-07T16:54:32.546Z,1.80
2019-05-07T16:58:42.618Z,1.70
2019-05-07T17:02:51.653Z,3.72
2019-05-07T17:06:55.256Z,1.27
2019-05-07T17:10:58.725Z,0.93
2019-05-07T17:15:02.948Z,4.95
2019-05-07T17:19:06.884Z,4.50
2019-05-07T17:23:11.923Z,2.25
2019-05-07T17:27:15.823Z,5.10
2019-05-07T17:31:19.277Z,5.90
2019-05-07T17:35:23.045Z,4.85
2019-05-07T17:39:26.758Z,1.77
2019-05-07T17:43:32.349Z,2.52
2019-05-07T17:47:35.648Z,2.05
2019-05-07T17:51:45.894Z,2.30
2019-05-07T17:55:49.358Z,1.15
2019-05-07T17:59:52.825Z,5.72
2019-05-07T18:03:56.623Z,4.53
2019-05-07T18:08:02.070Z,1.90
2019-05-07T18:12:06.523Z,2.70
2019-05-07T18:16:14.352Z,1.90
2019-05-07T18:20:17.849Z,2.15
2019-05-07T18:24:22.405Z,2.40
2019-05-07T18:28:27.747Z,1.00
2019-05-07T18:32:32.986Z,1.50
2019-05-07T18:36:36.427Z,1.70
2019-05-07T18:40:42.013Z,0.82
2019-05-07T18:44:45.077Z,1.57
2019-05-07T18:48:48.922Z,0.90
2019-05-07T18:52:52.757Z,4.20
2019-05-07T18:56:56.322Z,0.68
2019-05-07T19:01:02.670Z,1.17
2019-05-07T19:05:06.556Z,1.75
2019-05-07T19:09:10.708Z,1.47
2019-05-07T19:13:14.436Z,0.62
2019-05-07T19:17:18.158Z,1.57
2019-05-07T19:21:24.762Z,0.75
2019-05-07T19:25:28.459Z,0.88
2019-05-07T19:29:32.802Z,1.47
2019-05-07T19:33:36.582Z,0.73
2019-05-07T19:37:42.426Z,1.22
2019-05-07T19:41:45.449Z,7.07
2019-05-07T19:45:49.219Z,1.20
2019-05-07T19:49:52.858Z,1.32
2019-05-07T19:53:56.369Z,0.65
2019-05-07T19:58:01.533Z,0.70
2019-05-07T20:02:06.622Z,0.83
2019-05-07T20:06:10.057Z,1.87
2019-05-07T20:10:15.217Z,1.60
2019-05-07T20:14:18.665Z,0.77
2019-05-07T20:18:22.166Z,0.88
2019-05-07T20:22:25.625Z,1.02
2019-05-07T20:26:29.441Z,0.57
2019-05-07T20:30:32.974Z,2.02
2019-05-07T20:34:36.595Z,1.23
2019-05-07T20:38:42.514Z,1.92
2019-05-07T20:42:45.495Z,2.35
2019-05-07T20:46:49.310Z,1.30
2019-05-07T20:50:52.825Z,2.35
2019-05-07T20:55:04.321Z,1.57
2019-05-07T20:59:07.842Z,3.30
2019-05-07T21:03:23.338Z,0.98
2019-05-07T21:07:26.626Z,1.82
2019-05-07T21:11:32.150Z,1.85
2019-05-07T21:15:35.221Z,3.50
2019-05-07T21:19:38.977Z,0.75
2019-05-07T21:23:43.430Z,0.40
2019-05-07T21:27:47.022Z,4.23
2019-05-07T21:31:52.440Z,4.62
2019-05-07T21:35:56.050Z,0.82
2019-05-07T21:39:59.497Z,1.47
2019-05-07T21:44:03.216Z,0.70
2019-05-07T21:48:06.727Z,3.17
2019-05-07T21:52:12.508Z,0.93
2019-05-07T21:56:17.321Z,1.65
2019-05-07T22:00:25.538Z,2.10
2019-05-07T22:04:29.317Z,0.60
2019-05-07T22:08:32.773Z,1.13
2019-05-07T22:12:36.583Z,0.80
2019-05-07T22:16:40.013Z,1.10
2019-05-07T22:20:43.451Z,0.68
2019-05-07T22:24:49.399Z,1.15
2019-05-07T22:28:54.119Z,1.52
2019-05-07T22:33:08.250Z,2.20
2019-05-07T22:37:12.581Z,0.93
2019-05-07T22:41:16.495Z,0.95
2019-05-07T22:45:19.931Z,2.22
2019-05-07T22:49:23.365Z,1.47
2019-05-07T22:53:27.121Z,3.12
2019-05-07T22:57:42.121Z,1.30
2019-05-07T23:01:45.718Z,2.03
2019-05-07T23:05:49.422Z,1.30
2019-05-07T23:09:52.850Z,3.62
2019-05-07T23:13:56.289Z,1.50
2019-05-07T23:17:59.808Z,2.25
2019-05-07T23:22:03.653Z,1.00
2019-05-07T23:26:07.102Z,2.62
2019-05-07T23:30:13.029Z,1.47
2019-05-07T23:34:16.657Z,1.92
2019-05-07T23:38:22.374Z,2.42
2019-05-07T23:46:29.889Z,2.27
2019-05-07T23:50:33.642Z,2.90
2019-05-07T23:54:37.381Z,2.47
2019-05-07T23:58:41.946Z,3.37
